sensor_id;sensor_type;location;lat;lon;timestamp;P1;durP1;ratioP1;P2;durP2;ratioP2
46781;SDS011;32541;46.298;11.506;2023-07-08T00:00:48;4.70;;;3.42;;
46781;SDS011;32541;46.298;11.506;2023-07-08T00:03:14;6.50;;;3.83;;
46781;SDS011;32541;46.298;11.506;2023-07-08T00:05:39;7.72;;;3.72;;
46781;SDS011;32541;46.298;11.506;2023-07-08T00:08:07;6.05;;;3.50;;
46781;SDS011;32541;46.298;11.506;2023-07-08T00:10:44;7.45;;;3.47;;
46781;SDS011;32541;46.298;11.506;2023-07-08T00:13:10;6.65;;;3.70;;
46781;SDS011;32541;46.298;11.506;2023-07-08T00:15:36;5.53;;;3.58;;
46781;SDS011;32541;46.298;11.506;2023-07-08T00:18:16;4.75;;;3.17;;
46781;SDS011;32541;46.298;11.506;2023-07-08T00:20:48;5.57;;;3.42;;
46781;SDS011;32541;46.298;11.506;2023-07-08T00:23:15;5.70;;;3.75;;
46781;SDS011;32541;46.298;11.506;2023-07-08T00:25:40;5.40;;;3.65;;
46781;SDS011;32541;46.298;11.506;2023-07-08T00:28:28;5.72;;;3.75;;
46781;SDS011;32541;46.298;11.506;2023-07-08T00:30:52;5.55;;;3.20;;
46781;SDS011;32541;46.298;11.506;2023-07-08T00:33:19;6.65;;;3.42;;
46781;SDS011;32541;46.298;11.506;2023-07-08T00:35:44;6.60;;;3.30;;
46781;SDS011;32541;46.298;11.506;2023-07-08T00:38:14;5.50;;;2.95;;
46781;SDS011;32541;46.298;11.506;2023-07-08T00:40:52;6.13;;;3.40;;
46781;SDS011;32541;46.298;11.506;2023-07-08T00:43:52;9.02;;;3.67;;
46781;SDS011;32541;46.298;11.506;2023-07-08T00:52:18;3.67;;;2.83;;
46781;SDS011;32541;46.298;11.506;2023-07-08T00:54:48;5.93;;;3.58;;
46781;SDS011;32541;46.298;11.506;2023-07-08T00:57:14;8.75;;;4.47;;
46781;SDS011;32541;46.298;11.506;2023-07-08T00:59:54;6.88;;;3.95;;
46781;SDS011;32541;46.298;11.506;2023-07-08T01:02:35;8.45;;;3.65;;
46781;SDS011;32541;46.298;11.506;2023-07-08T01:05:08;5.65;;;3.50;;
46781;SDS011;32541;46.298;11.506;2023-07-08T01:07:38;5.65;;;3.50;;
46781;SDS011;32541;46.298;11.506;2023-07-08T01:10:12;5.72;;;3.63;;
46781;SDS011;32541;46.298;11.506;2023-07-08T01:12:43;5.18;;;3.45;;
46781;SDS011;32541;46.298;11.506;2023-07-08T01:15:13;5.35;;;3.40;;
46781;SDS011;32541;46.298;11.506;2023-07-08T01:17:39;10.98;;;3.65;;
46781;SDS011;32541;46.298;11.506;2023-07-08T01:20:07;7.53;;;3.30;;
46781;SDS011;32541;46.298;11.506;2023-07-08T01:22:37;5.20;;;3.30;;
46781;SDS011;32541;46.298;11.506;2023-07-08T01:25:04;6.60;;;3.88;;
46781;SDS011;32541;46.298;11.506;2023-07-08T01:27:31;9.07;;;3.30;;
46781;SDS011;32541;46.298;11.506;2023-07-08T01:30:06;6.55;;;4.05;;
46781;SDS011;32541;46.298;11.506;2023-07-08T01:32:39;6.53;;;3.80;;
46781;SDS011;32541;46.298;11.506;2023-07-08T01:35:08;6.00;;;3.80;;
46781;SDS011;32541;46.298;11.506;2023-07-08T01:37:38;4.25;;;3.40;;
46781;SDS011;32541;46.298;11.506;2023-07-08T01:42:52;7.80;;;3.78;;
46781;SDS011;32541;46.298;11.506;2023-07-08T01:45:19;5.00;;;3.50;;
46781;SDS011;32541;46.298;11.506;2023-07-08T01:48:05;6.55;;;3.78;;
46781;SDS011;32541;46.298;11.506;2023-07-08T01:50:35;5.90;;;4.32;;
46781;SDS011;32541;46.298;11.506;2023-07-08T01:53:05;7.68;;;3.67;;
46781;SDS011;32541;46.298;11.506;2023-07-08T01:55:36;7.68;;;3.65;;
46781;SDS011;32541;46.298;11.506;2023-07-08T01:58:01;4.75;;;3.67;;
46781;SDS011;32541;46.298;11.506;2023-07-08T02:00:26;5.50;;;3.95;;
46781;SDS011;32541;46.298;11.506;2023-07-08T02:02:55;8.07;;;3.65;;
46781;SDS011;32541;46.298;11.506;2023-07-08T02:05:20;5.22;;;3.83;;
46781;SDS011;32541;46.298;11.506;2023-07-08T02:07:46;5.50;;;3.53;;
46781;SDS011;32541;46.298;11.506;2023-07-08T02:10:11;5.70;;;3.60;;
46781;SDS011;32541;46.298;11.506;2023-07-08T02:12:36;5.15;;;3.50;;
46781;SDS011;32541;46.298;11.506;2023-07-08T02:15:02;5.55;;;3.72;;
46781;SDS011;32541;46.298;11.506;2023-07-08T02:17:28;6.68;;;3.90;;
46781;SDS011;32541;46.298;11.506;2023-07-08T02:20:03;6.50;;;3.50;;
46781;SDS011;32541;46.298;11.506;2023-07-08T02:22:28;6.88;;;3.80;;
46781;SDS011;32541;46.298;11.506;2023-07-08T02:24:54;6.43;;;3.45;;
46781;SDS011;32541;46.298;11.506;2023-07-08T02:27:19;6.75;;;4.07;;
46781;SDS011;32541;46.298;11.506;2023-07-08T02:29:44;4.80;;;3.80;;
46781;SDS011;32541;46.298;11.506;2023-07-08T02:32:10;6.25;;;3.95;;
46781;SDS011;32541;46.298;11.506;2023-07-08T02:34:36;5.57;;;3.53;;
46781;SDS011;32541;46.298;11.506;2023-07-08T02:37:02;5.05;;;3.85;;
46781;SDS011;32541;46.298;11.506;2023-07-08T02:39:27;5.45;;;3.45;;
46781;SDS011;32541;46.298;11.506;2023-07-08T02:41:53;5.38;;;3.80;;
46781;SDS011;32541;46.298;11.506;2023-07-08T02:44:18;5.60;;;4.00;;
46781;SDS011;32541;46.298;11.506;2023-07-08T02:46:44;8.32;;;4.07;;
46781;SDS011;32541;46.298;11.506;2023-07-08T02:49:09;6.93;;;4.03;;
46781;SDS011;32541;46.298;11.506;2023-07-08T02:51:34;4.97;;;3.72;;
46781;SDS011;32541;46.298;11.506;2023-07-08T02:54:00;5.78;;;3.67;;
46781;SDS011;32541;46.298;11.506;2023-07-08T02:56:25;8.80;;;4.15;;
46781;SDS011;32541;46.298;11.506;2023-07-08T02:58:51;4.22;;;3.67;;
46781;SDS011;32541;46.298;11.506;2023-07-08T03:01:17;7.03;;;4.03;;
46781;SDS011;32541;46.298;11.506;2023-07-08T03:03:45;4.50;;;3.45;;
46781;SDS011;32541;46.298;11.506;2023-07-08T03:06:12;6.13;;;4.00;;
46781;SDS011;32541;46.298;11.506;2023-07-08T03:08:38;5.93;;;4.10;;
46781;SDS011;32541;46.298;11.506;2023-07-08T03:11:04;7.68;;;5.10;;
46781;SDS011;32541;46.298;11.506;2023-07-08T03:13:31;6.38;;;4.22;;
46781;SDS011;32541;46.298;11.506;2023-07-08T03:15:58;8.15;;;3.75;;
46781;SDS011;32541;46.298;11.506;2023-07-08T03:18:27;7.07;;;4.43;;
46781;SDS011;32541;46.298;11.506;2023-07-08T03:20:54;5.55;;;4.10;;
46781;SDS011;32541;46.298;11.506;2023-07-08T03:23:21;7.40;;;4.20;;
46781;SDS011;32541;46.298;11.506;2023-07-08T03:25:47;6.60;;;3.90;;
46781;SDS011;32541;46.298;11.506;2023-07-08T03:28:13;7.03;;;4.45;;
46781;SDS011;32541;46.298;11.506;2023-07-08T03:30:43;5.70;;;4.00;;
46781;SDS011;32541;46.298;11.506;2023-07-08T03:33:09;7.03;;;4.25;;
46781;SDS011;32541;46.298;11.506;2023-07-08T03:35:35;6.15;;;4.35;;
46781;SDS011;32541;46.298;11.506;2023-07-08T03:38:01;9.15;;;4.93;;
46781;SDS011;32541;46.298;11.506;2023-07-08T03:40:28;7.30;;;4.57;;
46781;SDS011;32541;46.298;11.506;2023-07-08T03:42:53;5.65;;;4.15;;
46781;SDS011;32541;46.298;11.506;2023-07-08T03:45:19;8.88;;;4.90;;
46781;SDS011;32541;46.298;11.506;2023-07-08T03:47:44;6.70;;;4.63;;
46781;SDS011;32541;46.298;11.506;2023-07-08T03:50:17;6.28;;;4.13;;
46781;SDS011;32541;46.298;11.506;2023-07-08T03:52:45;8.02;;;4.68;;
46781;SDS011;32541;46.298;11.506;2023-07-08T03:55:12;6.65;;;4.68;;
46781;SDS011;32541;46.298;11.506;2023-07-08T03:57:37;8.15;;;5.20;;
46781;SDS011;32541;46.298;11.506;2023-07-08T04:00:03;10.93;;;5.53;;
46781;SDS011;32541;46.298;11.506;2023-07-08T04:02:29;5.95;;;4.13;;
46781;SDS011;32541;46.298;11.506;2023-07-08T04:04:54;5.93;;;4.10;;
46781;SDS011;32541;46.298;11.506;2023-07-08T04:07:20;6.35;;;4.75;;
46781;SDS011;32541;46.298;11.506;2023-07-08T04:09:45;7.85;;;4.57;;
46781;SDS011;32541;46.298;11.506;2023-07-08T04:12:15;7.97;;;4.20;;
46781;SDS011;32541;46.298;11.506;2023-07-08T04:14:41;5.95;;;4.03;;
46781;SDS011;32541;46.298;11.506;2023-07-08T04:17:08;6.90;;;4.53;;
46781;SDS011;32541;46.298;11.506;2023-07-08T04:19:34;7.28;;;4.05;;
46781;SDS011;32541;46.298;11.506;2023-07-08T04:22:01;7.50;;;4.63;;
46781;SDS011;32541;46.298;11.506;2023-07-08T04:24:27;7.03;;;4.95;;
46781;SDS011;32541;46.298;11.506;2023-07-08T04:26:52;5.75;;;4.60;;
46781;SDS011;32541;46.298;11.506;2023-07-08T04:29:19;7.38;;;4.40;;
46781;SDS011;32541;46.298;11.506;2023-07-08T04:31:48;7.18;;;4.50;;
46781;SDS011;32541;46.298;11.506;2023-07-08T04:34:13;6.55;;;4.43;;
46781;SDS011;32541;46.298;11.506;2023-07-08T04:36:40;7.35;;;4.05;;
46781;SDS011;32541;46.298;11.506;2023-07-08T04:39:05;8.52;;;4.90;;
46781;SDS011;32541;46.298;11.506;2023-07-08T04:41:33;5.72;;;3.75;;
46781;SDS011;32541;46.298;11.506;2023-07-08T04:43:59;6.65;;;4.25;;
46781;SDS011;32541;46.298;11.506;2023-07-08T04:46:37;5.32;;;3.90;;
46781;SDS011;32541;46.298;11.506;2023-07-08T04:49:06;6.10;;;4.25;;
46781;SDS011;32541;46.298;11.506;2023-07-08T04:51:34;5.72;;;4.13;;
46781;SDS011;32541;46.298;11.506;2023-07-08T04:54:00;8.35;;;4.68;;
46781;SDS011;32541;46.298;11.506;2023-07-08T04:56:34;8.13;;;4.38;;
46781;SDS011;32541;46.298;11.506;2023-07-08T04:59:05;8.25;;;4.97;;
46781;SDS011;32541;46.298;11.506;2023-07-08T05:01:32;8.52;;;4.95;;
46781;SDS011;32541;46.298;11.506;2023-07-08T05:03:58;6.55;;;4.78;;
46781;SDS011;32541;46.298;11.506;2023-07-08T05:06:24;6.30;;;5.30;;
46781;SDS011;32541;46.298;11.506;2023-07-08T05:08:50;6.55;;;4.38;;
46781;SDS011;32541;46.298;11.506;2023-07-08T05:11:15;6.53;;;4.72;;
46781;SDS011;32541;46.298;11.506;2023-07-08T05:13:41;5.00;;;4.10;;
46781;SDS011;32541;46.298;11.506;2023-07-08T05:16:06;6.53;;;4.20;;
46781;SDS011;32541;46.298;11.506;2023-07-08T05:18:31;5.97;;;4.22;;
46781;SDS011;32541;46.298;11.506;2023-07-08T05:20:57;6.20;;;4.18;;
46781;SDS011;32541;46.298;11.506;2023-07-08T05:23:22;7.25;;;4.00;;
46781;SDS011;32541;46.298;11.506;2023-07-08T05:25:49;7.72;;;4.63;;
46781;SDS011;32541;46.298;11.506;2023-07-08T05:28:14;8.30;;;5.10;;
46781;SDS011;32541;46.298;11.506;2023-07-08T05:30:40;10.35;;;5.88;;
46781;SDS011;32541;46.298;11.506;2023-07-08T05:33:06;7.85;;;5.30;;
46781;SDS011;32541;46.298;11.506;2023-07-08T05:35:32;6.80;;;5.25;;
46781;SDS011;32541;46.298;11.506;2023-07-08T05:37:58;8.73;;;5.60;;
46781;SDS011;32541;46.298;11.506;2023-07-08T05:40:23;6.72;;;4.90;;
46781;SDS011;32541;46.298;11.506;2023-07-08T05:42:49;10.60;;;5.18;;
46781;SDS011;32541;46.298;11.506;2023-07-08T05:45:14;10.40;;;4.95;;
46781;SDS011;32541;46.298;11.506;2023-07-08T05:47:40;7.13;;;4.63;;
46781;SDS011;32541;46.298;11.506;2023-07-08T05:50:05;7.60;;;5.15;;
46781;SDS011;32541;46.298;11.506;2023-07-08T05:52:31;8.98;;;6.22;;
46781;SDS011;32541;46.298;11.506;2023-07-08T05:54:56;9.02;;;5.38;;
46781;SDS011;32541;46.298;11.506;2023-07-08T05:57:22;9.50;;;6.50;;
46781;SDS011;32541;46.298;11.506;2023-07-08T05:59:48;9.88;;;4.97;;
46781;SDS011;32541;46.298;11.506;2023-07-08T06:02:15;7.15;;;4.88;;
46781;SDS011;32541;46.298;11.506;2023-07-08T06:04:41;7.03;;;4.43;;
46781;SDS011;32541;46.298;11.506;2023-07-08T06:07:07;7.70;;;4.30;;
46781;SDS011;32541;46.298;11.506;2023-07-08T06:09:33;7.03;;;4.75;;
46781;SDS011;32541;46.298;11.506;2023-07-08T06:11:58;9.90;;;6.10;;
46781;SDS011;32541;46.298;11.506;2023-07-08T06:14:24;8.40;;;5.47;;
46781;SDS011;32541;46.298;11.506;2023-07-08T06:16:50;6.90;;;4.80;;
46781;SDS011;32541;46.298;11.506;2023-07-08T06:19:15;8.38;;;4.95;;
46781;SDS011;32541;46.298;11.506;2023-07-08T06:21:42;6.15;;;4.70;;
46781;SDS011;32541;46.298;11.506;2023-07-08T06:24:08;13.95;;;6.57;;
46781;SDS011;32541;46.298;11.506;2023-07-08T06:26:34;11.27;;;6.30;;
46781;SDS011;32541;46.298;11.506;2023-07-08T06:28:59;9.23;;;5.80;;
46781;SDS011;32541;46.298;11.506;2023-07-08T06:31:25;9.70;;;5.07;;
46781;SDS011;32541;46.298;11.506;2023-07-08T06:33:50;8.88;;;5.28;;
46781;SDS011;32541;46.298;11.506;2023-07-08T06:36:16;7.30;;;5.22;;
46781;SDS011;32541;46.298;11.506;2023-07-08T06:38:41;7.35;;;5.05;;
46781;SDS011;32541;46.298;11.506;2023-07-08T06:41:07;7.50;;;5.60;;
46781;SDS011;32541;46.298;11.506;2023-07-08T06:43:32;11.95;;;7.60;;
46781;SDS011;32541;46.298;11.506;2023-07-08T06:45:58;11.57;;;5.95;;
46781;SDS011;32541;46.298;11.506;2023-07-08T06:48:23;8.45;;;5.53;;
46781;SDS011;32541;46.298;11.506;2023-07-08T06:50:50;7.38;;;4.72;;
46781;SDS011;32541;46.298;11.506;2023-07-08T06:53:16;8.48;;;5.00;;
46781;SDS011;32541;46.298;11.506;2023-07-08T06:55:43;7.50;;;4.25;;
46781;SDS011;32541;46.298;11.506;2023-07-08T06:58:09;7.72;;;4.32;;
46781;SDS011;32541;46.298;11.506;2023-07-08T07:00:35;7.35;;;4.22;;
46781;SDS011;32541;46.298;11.506;2023-07-08T07:03:00;9.23;;;5.20;;
46781;SDS011;32541;46.298;11.506;2023-07-08T07:05:25;8.13;;;4.90;;
46781;SDS011;32541;46.298;11.506;2023-07-08T07:07:51;10.57;;;4.90;;
46781;SDS011;32541;46.298;11.506;2023-07-08T07:10:18;9.02;;;4.78;;
46781;SDS011;32541;46.298;11.506;2023-07-08T07:12:44;9.02;;;5.10;;
46781;SDS011;32541;46.298;11.506;2023-07-08T07:15:09;6.85;;;4.55;;
46781;SDS011;32541;46.298;11.506;2023-07-08T07:17:35;5.00;;;3.60;;
46781;SDS011;32541;46.298;11.506;2023-07-08T07:20:01;6.38;;;4.15;;
46781;SDS011;32541;46.298;11.506;2023-07-08T07:22:27;7.00;;;4.53;;
46781;SDS011;32541;46.298;11.506;2023-07-08T07:24:53;6.38;;;4.47;;
46781;SDS011;32541;46.298;11.506;2023-07-08T07:27:19;9.18;;;4.10;;
46781;SDS011;32541;46.298;11.506;2023-07-08T07:29:46;8.95;;;4.82;;
46781;SDS011;32541;46.298;11.506;2023-07-08T07:32:13;8.05;;;3.75;;
46781;SDS011;32541;46.298;11.506;2023-07-08T07:34:40;7.10;;;4.30;;
46781;SDS011;32541;46.298;11.506;2023-07-08T07:37:06;7.80;;;3.65;;
46781;SDS011;32541;46.298;11.506;2023-07-08T07:39:36;5.28;;;3.92;;
46781;SDS011;32541;46.298;11.506;2023-07-08T07:42:02;5.35;;;3.95;;
46781;SDS011;32541;46.298;11.506;2023-07-08T07:44:27;5.95;;;4.22;;
46781;SDS011;32541;46.298;11.506;2023-07-08T07:46:53;7.55;;;4.57;;
46781;SDS011;32541;46.298;11.506;2023-07-08T07:49:19;6.45;;;3.70;;
46781;SDS011;32541;46.298;11.506;2023-07-08T07:51:45;8.30;;;4.55;;
46781;SDS011;32541;46.298;11.506;2023-07-08T07:54:10;6.60;;;4.43;;
46781;SDS011;32541;46.298;11.506;2023-07-08T07:56:36;8.73;;;5.18;;
46781;SDS011;32541;46.298;11.506;2023-07-08T07:59:02;7.43;;;4.70;;
46781;SDS011;32541;46.298;11.506;2023-07-08T08:01:28;10.98;;;4.65;;
46781;SDS011;32541;46.298;11.506;2023-07-08T08:03:53;5.55;;;4.05;;
46781;SDS011;32541;46.298;11.506;2023-07-08T08:06:19;6.75;;;4.53;;
46781;SDS011;32541;46.298;11.506;2023-07-08T08:08:44;8.90;;;4.40;;
46781;SDS011;32541;46.298;11.506;2023-07-08T08:11:10;6.30;;;4.00;;
46781;SDS011;32541;46.298;11.506;2023-07-08T08:13:36;6.93;;;4.75;;
46781;SDS011;32541;46.298;11.506;2023-07-08T08:16:02;5.45;;;4.30;;
46781;SDS011;32541;46.298;11.506;2023-07-08T08:18:29;5.90;;;4.43;;
46781;SDS011;32541;46.298;11.506;2023-07-08T08:20:55;7.03;;;4.50;;
46781;SDS011;32541;46.298;11.506;2023-07-08T08:23:20;8.57;;;4.35;;
46781;SDS011;32541;46.298;11.506;2023-07-08T08:25:46;6.15;;;4.32;;
46781;SDS011;32541;46.298;11.506;2023-07-08T08:28:11;7.90;;;5.30;;
46781;SDS011;32541;46.298;11.506;2023-07-08T08:30:37;7.05;;;4.97;;
46781;SDS011;32541;46.298;11.506;2023-07-08T08:33:02;8.02;;;5.10;;
46781;SDS011;32541;46.298;11.506;2023-07-08T08:35:28;8.80;;;4.88;;
46781;SDS011;32541;46.298;11.506;2023-07-08T08:37:53;6.68;;;4.30;;
46781;SDS011;32541;46.298;11.506;2023-07-08T08:40:19;9.07;;;5.28;;
46781;SDS011;32541;46.298;11.506;2023-07-08T08:43:06;7.68;;;4.30;;
46781;SDS011;32541;46.298;11.506;2023-07-08T08:45:35;6.75;;;4.25;;
46781;SDS011;32541;46.298;11.506;2023-07-08T08:48:25;7.55;;;4.15;;
46781;SDS011;32541;46.298;11.506;2023-07-08T08:51:05;6.68;;;4.05;;
46781;SDS011;32541;46.298;11.506;2023-07-08T08:53:37;7.82;;;4.28;;
46781;SDS011;32541;46.298;11.506;2023-07-08T08:56:10;6.18;;;4.32;;
46781;SDS011;32541;46.298;11.506;2023-07-08T08:58:43;7.10;;;4.95;;
46781;SDS011;32541;46.298;11.506;2023-07-08T09:01:16;6.78;;;4.10;;
46781;SDS011;32541;46.298;11.506;2023-07-08T09:06:29;6.32;;;4.10;;
46781;SDS011;32541;46.298;11.506;2023-07-08T09:09:02;7.82;;;4.25;;
46781;SDS011;32541;46.298;11.506;2023-07-08T09:16:47;5.80;;;3.65;;
46781;SDS011;32541;46.298;11.506;2023-07-08T09:19:24;8.27;;;3.60;;
46781;SDS011;32541;46.298;11.506;2023-07-08T09:24:48;5.47;;;3.53;;
46781;SDS011;32541;46.298;11.506;2023-07-08T09:27:34;7.20;;;3.90;;
46781;SDS011;32541;46.298;11.506;2023-07-08T09:30:00;6.70;;;4.05;;
46781;SDS011;32541;46.298;11.506;2023-07-08T09:32:26;6.35;;;3.60;;
46781;SDS011;32541;46.298;11.506;2023-07-08T09:37:27;7.22;;;3.72;;
46781;SDS011;32541;46.298;11.506;2023-07-08T09:39:55;7.50;;;3.08;;
46781;SDS011;32541;46.298;11.506;2023-07-08T09:42:25;5.18;;;3.30;;
46781;SDS011;32541;46.298;11.506;2023-07-08T09:44:55;6.20;;;3.25;;
46781;SDS011;32541;46.298;11.506;2023-07-08T09:47:26;6.82;;;3.22;;
46781;SDS011;32541;46.298;11.506;2023-07-08T09:49:59;7.10;;;3.22;;
46781;SDS011;32541;46.298;11.506;2023-07-08T09:52:25;9.18;;;3.63;;
46781;SDS011;32541;46.298;11.506;2023-07-08T09:54:54;6.60;;;3.17;;
46781;SDS011;32541;46.298;11.506;2023-07-08T09:57:27;4.53;;;2.80;;
46781;SDS011;32541;46.298;11.506;2023-07-08T10:00:16;5.82;;;3.10;;
46781;SDS011;32541;46.298;11.506;2023-07-08T10:02:54;5.38;;;3.08;;
46781;SDS011;32541;46.298;11.506;2023-07-08T10:05:23;7.20;;;3.22;;
46781;SDS011;32541;46.298;11.506;2023-07-08T10:07:58;6.55;;;3.40;;
46781;SDS011;32541;46.298;11.506;2023-07-08T10:10:27;13.48;;;3.85;;
46781;SDS011;32541;46.298;11.506;2023-07-08T10:12:57;6.82;;;3.10;;
46781;SDS011;32541;46.298;11.506;2023-07-08T10:15:38;5.30;;;3.10;;
46781;SDS011;32541;46.298;11.506;2023-07-08T10:18:20;5.57;;;3.22;;
46781;SDS011;32541;46.298;11.506;2023-07-08T10:20:55;5.88;;;3.55;;
46781;SDS011;32541;46.298;11.506;2023-07-08T10:23:34;5.18;;;3.30;;
46781;SDS011;32541;46.298;11.506;2023-07-08T10:51:40;6.85;;;2.67;;
46781;SDS011;32541;46.298;11.506;2023-07-08T11:00:33;6.30;;;2.92;;
46781;SDS011;32541;46.298;11.506;2023-07-08T11:03:10;6.05;;;2.83;;
46781;SDS011;32541;46.298;11.506;2023-07-08T11:05:44;6.72;;;2.80;;
46781;SDS011;32541;46.298;11.506;2023-07-08T11:10:42;4.43;;;2.63;;
46781;SDS011;32541;46.298;11.506;2023-07-08T11:13:17;7.85;;;3.00;;
46781;SDS011;32541;46.298;11.506;2023-07-08T11:15:47;5.55;;;3.30;;
46781;SDS011;32541;46.298;11.506;2023-07-08T11:18:24;7.82;;;3.10;;
46781;SDS011;32541;46.298;11.506;2023-07-08T11:21:00;7.97;;;3.45;;
46781;SDS011;32541;46.298;11.506;2023-07-08T11:23:43;4.32;;;2.67;;
46781;SDS011;32541;46.298;11.506;2023-07-08T11:26:20;6.35;;;3.20;;
46781;SDS011;32541;46.298;11.506;2023-07-08T11:28:52;5.63;;;2.60;;
46781;SDS011;32541;46.298;11.506;2023-07-08T11:31:22;6.65;;;3.33;;
46781;SDS011;32541;46.298;11.506;2023-07-08T11:33:48;5.13;;;3.42;;
46781;SDS011;32541;46.298;11.506;2023-07-08T11:36:15;9.00;;;3.25;;
46781;SDS011;32541;46.298;11.506;2023-07-08T11:38:48;5.43;;;2.83;;
46781;SDS011;32541;46.298;11.506;2023-07-08T11:41:16;5.32;;;2.97;;
46781;SDS011;32541;46.298;11.506;2023-07-08T11:43:46;4.75;;;2.85;;
46781;SDS011;32541;46.298;11.506;2023-07-08T11:46:16;7.60;;;4.18;;
46781;SDS011;32541;46.298;11.506;2023-07-08T11:48:46;5.68;;;3.22;;
46781;SDS011;32541;46.298;11.506;2023-07-08T11:51:17;6.47;;;3.33;;
46781;SDS011;32541;46.298;11.506;2023-07-08T11:56:25;7.85;;;3.28;;
46781;SDS011;32541;46.298;11.506;2023-07-08T11:58:58;6.15;;;3.38;;
46781;SDS011;32541;46.298;11.506;2023-07-08T12:01:30;6.22;;;3.05;;
46781;SDS011;32541;46.298;11.506;2023-07-08T12:09:00;7.07;;;3.70;;
46781;SDS011;32541;46.298;11.506;2023-07-08T12:11:39;5.57;;;3.15;;
46781;SDS011;32541;46.298;11.506;2023-07-08T12:14:08;6.15;;;3.03;;
46781;SDS011;32541;46.298;11.506;2023-07-08T12:16:34;7.07;;;3.20;;
46781;SDS011;32541;46.298;11.506;2023-07-08T12:19:01;4.80;;;3.20;;
46781;SDS011;32541;46.298;11.506;2023-07-08T12:21:34;5.63;;;2.63;;
46781;SDS011;32541;46.298;11.506;2023-07-08T12:24:04;7.18;;;3.40;;
46781;SDS011;32541;46.298;11.506;2023-07-08T12:26:30;4.10;;;2.97;;
46781;SDS011;32541;46.298;11.506;2023-07-08T12:28:57;7.22;;;3.28;;
46781;SDS011;32541;46.298;11.506;2023-07-08T12:31:22;5.93;;;3.28;;
46781;SDS011;32541;46.298;11.506;2023-07-08T12:33:49;5.22;;;3.08;;
46781;SDS011;32541;46.298;11.506;2023-07-08T12:36:25;6.10;;;3.00;;
46781;SDS011;32541;46.298;11.506;2023-07-08T12:38:54;8.15;;;3.63;;
46781;SDS011;32541;46.298;11.506;2023-07-08T12:43:48;5.43;;;3.30;;
46781;SDS011;32541;46.298;11.506;2023-07-08T12:46:16;7.65;;;3.20;;
46781;SDS011;32541;46.298;11.506;2023-07-08T12:48:43;3.65;;;2.70;;
46781;SDS011;32541;46.298;11.506;2023-07-08T12:51:13;4.32;;;2.85;;
46781;SDS011;32541;46.298;11.506;2023-07-08T12:53:41;6.70;;;3.43;;
46781;SDS011;32541;46.298;11.506;2023-07-08T12:56:07;7.82;;;2.72;;
46781;SDS011;32541;46.298;11.506;2023-07-08T12:58:34;7.35;;;2.50;;
46781;SDS011;32541;46.298;11.506;2023-07-08T13:01:04;4.43;;;2.80;;
46781;SDS011;32541;46.298;11.506;2023-07-08T13:03:33;4.10;;;2.65;;
46781;SDS011;32541;46.298;11.506;2023-07-08T13:06:02;3.92;;;2.70;;
46781;SDS011;32541;46.298;11.506;2023-07-08T13:08:29;6.75;;;2.65;;
46781;SDS011;32541;46.298;11.506;2023-07-08T13:10:59;8.15;;;3.10;;
46781;SDS011;32541;46.298;11.506;2023-07-08T13:13:27;3.90;;;2.72;;
46781;SDS011;32541;46.298;11.506;2023-07-08T13:15:55;6.45;;;2.70;;
46781;SDS011;32541;46.298;11.506;2023-07-08T13:18:23;4.80;;;2.83;;
46781;SDS011;32541;46.298;11.506;2023-07-08T13:20:55;6.15;;;2.67;;
46781;SDS011;32541;46.298;11.506;2023-07-08T13:23:21;4.32;;;2.25;;
46781;SDS011;32541;46.298;11.506;2023-07-08T13:25:51;5.25;;;2.38;;
46781;SDS011;32541;46.298;11.506;2023-07-08T13:28:20;5.15;;;2.65;;
46781;SDS011;32541;46.298;11.506;2023-07-08T13:33:20;6.88;;;2.78;;
46781;SDS011;32541;46.298;11.506;2023-07-08T13:35:47;5.07;;;2.25;;
46781;SDS011;32541;46.298;11.506;2023-07-08T13:38:15;4.78;;;2.92;;
46781;SDS011;32541;46.298;11.506;2023-07-08T13:40:45;4.40;;;2.65;;
46781;SDS011;32541;46.298;11.506;2023-07-08T13:43:12;5.25;;;2.80;;
46781;SDS011;32541;46.298;11.506;2023-07-08T13:45:41;4.80;;;2.80;;
46781;SDS011;32541;46.298;11.506;2023-07-08T13:50:47;4.90;;;2.47;;
46781;SDS011;32541;46.298;11.506;2023-07-08T13:53:21;5.63;;;2.70;;
46781;SDS011;32541;46.298;11.506;2023-07-08T13:55:58;4.18;;;3.00;;
46781;SDS011;32541;46.298;11.506;2023-07-08T13:58:27;5.95;;;3.00;;
46781;SDS011;32541;46.298;11.506;2023-07-08T14:00:54;4.80;;;3.10;;
46781;SDS011;32541;46.298;11.506;2023-07-08T14:03:20;5.60;;;3.00;;
46781;SDS011;32541;46.298;11.506;2023-07-08T14:05:45;7.03;;;3.30;;
46781;SDS011;32541;46.298;11.506;2023-07-08T14:08:15;5.57;;;2.97;;
46781;SDS011;32541;46.298;11.506;2023-07-08T14:10:42;5.50;;;3.15;;
46781;SDS011;32541;46.298;11.506;2023-07-08T14:13:09;6.40;;;3.13;;
46781;SDS011;32541;46.298;11.506;2023-07-08T14:15:35;6.00;;;2.97;;
46781;SDS011;32541;46.298;11.506;2023-07-08T14:18:03;5.30;;;2.83;;
46781;SDS011;32541;46.298;11.506;2023-07-08T14:20:29;6.47;;;3.63;;
46781;SDS011;32541;46.298;11.506;2023-07-08T14:22:54;5.57;;;3.38;;
46781;SDS011;32541;46.298;11.506;2023-07-08T14:25:20;6.15;;;3.17;;
46781;SDS011;32541;46.298;11.506;2023-07-08T14:27:48;6.60;;;3.53;;
46781;SDS011;32541;46.298;11.506;2023-07-08T14:30:14;5.53;;;3.78;;
46781;SDS011;32541;46.298;11.506;2023-07-08T14:32:40;6.25;;;3.70;;
46781;SDS011;32541;46.298;11.506;2023-07-08T14:37:51;5.65;;;3.20;;
46781;SDS011;32541;46.298;11.506;2023-07-08T14:40:32;6.22;;;3.20;;
46781;SDS011;32541;46.298;11.506;2023-07-08T14:43:06;5.43;;;3.22;;
46781;SDS011;32541;46.298;11.506;2023-07-08T14:45:39;5.75;;;3.45;;
46781;SDS011;32541;46.298;11.506;2023-07-08T14:48:11;4.80;;;3.00;;
46781;SDS011;32541;46.298;11.506;2023-07-08T14:50:37;7.05;;;3.08;;
46781;SDS011;32541;46.298;11.506;2023-07-08T14:53:03;7.72;;;3.05;;
46781;SDS011;32541;46.298;11.506;2023-07-08T14:55:29;3.88;;;3.00;;
46781;SDS011;32541;46.298;11.506;2023-07-08T14:57:55;5.07;;;3.40;;
46781;SDS011;32541;46.298;11.506;2023-07-08T15:00:22;5.35;;;3.13;;
46781;SDS011;32541;46.298;11.506;2023-07-08T15:02:47;4.05;;;3.15;;
46781;SDS011;32541;46.298;11.506;2023-07-08T15:05:19;8.23;;;3.13;;
46781;SDS011;32541;46.298;11.506;2023-07-08T15:07:53;5.75;;;3.13;;
46781;SDS011;32541;46.298;11.506;2023-07-08T15:10:23;6.00;;;3.28;;
46781;SDS011;32541;46.298;11.506;2023-07-08T15:12:50;4.35;;;2.80;;
46781;SDS011;32541;46.298;11.506;2023-07-08T15:15:29;5.50;;;3.10;;
46781;SDS011;32541;46.298;11.506;2023-07-08T15:17:57;5.15;;;3.20;;
46781;SDS011;32541;46.298;11.506;2023-07-08T15:20:23;5.78;;;3.65;;
46781;SDS011;32541;46.298;11.506;2023-07-08T15:22:49;4.70;;;2.85;;
46781;SDS011;32541;46.298;11.506;2023-07-08T15:25:16;8.95;;;3.33;;
46781;SDS011;32541;46.298;11.506;2023-07-08T15:27:46;5.00;;;3.08;;
46781;SDS011;32541;46.298;11.506;2023-07-08T15:30:19;5.85;;;3.90;;
46781;SDS011;32541;46.298;11.506;2023-07-08T15:32:45;6.55;;;3.33;;
46781;SDS011;32541;46.298;11.506;2023-07-08T15:35:12;5.20;;;3.28;;
46781;SDS011;32541;46.298;11.506;2023-07-08T15:37:39;6.30;;;3.90;;
46781;SDS011;32541;46.298;11.506;2023-07-08T15:40:04;5.55;;;3.63;;
46781;SDS011;32541;46.298;11.506;2023-07-08T15:42:34;6.32;;;3.20;;
46781;SDS011;32541;46.298;11.506;2023-07-08T15:45:00;14.07;;;3.70;;
46781;SDS011;32541;46.298;11.506;2023-07-08T15:47:27;6.35;;;3.92;;
46781;SDS011;32541;46.298;11.506;2023-07-08T15:49:52;5.22;;;3.58;;
46781;SDS011;32541;46.298;11.506;2023-07-08T15:52:18;6.20;;;3.63;;
46781;SDS011;32541;46.298;11.506;2023-07-08T15:54:43;5.10;;;2.90;;